sensor_id;sensor_type;location;lat;lon;timestamp;temperature;humidity
2407;DHT22;37709;53.480;9.688;2022-12-18T11:18:34;2.30;97.10
2407;DHT22;37709;53.480;9.688;2022-12-18T11:21:10;2.70;98.60
2407;DHT22;37709;53.480;9.688;2022-12-18T11:23:52;3.80;97.00
2407;DHT22;37709;53.480;9.688;2022-12-18T11:26:34;3.80;94.50
2407;DHT22;37709;53.480;9.688;2022-12-18T11:29:15;2.80;94.30
2407;DHT22;37709;53.480;9.688;2022-12-18T11:31:49;2.00;96.50
2407;DHT22;37709;53.480;9.688;2022-12-18T11:34:26;1.70;97.60
2407;DHT22;37709;53.480;9.688;2022-12-18T11:36:59;2.00;97.00
2407;DHT22;37709;53.480;9.688;2022-12-18T11:39:38;2.70;97.80
2407;DHT22;37709;53.480;9.688;2022-12-18T11:44:55;2.80;96.70
2407;DHT22;37709;53.480;9.688;2022-12-18T11:47:58;3.10;96.80
2407;DHT22;37709;53.480;9.688;2022-12-18T11:53:04;3.20;95.90
2407;DHT22;37709;53.480;9.688;2022-12-18T11:58:25;3.10;95.30
2407;DHT22;37709;53.480;9.688;2022-12-18T12:06:50;2.70;94.40
2407;DHT22;37709;53.480;9.688;2022-12-18T12:09:30;2.30;95.90
2407;DHT22;37709;53.480;9.688;2022-12-18T12:17:56;1.80;95.70
2407;DHT22;37709;53.480;9.688;2022-12-18T12:24:01;0.80;97.20
2407;DHT22;37709;53.480;9.688;2022-12-18T12:34:59;0.80;98.50
2407;DHT22;37709;53.480;9.688;2022-12-18T12:38:04;1.00;97.60
2407;DHT22;37709;53.480;9.688;2022-12-18T12:40:41;1.20;97.40
2407;DHT22;37709;53.480;9.688;2022-12-18T12:43:33;1.20;96.70
2407;DHT22;37709;53.480;9.688;2022-12-18T12:46:09;1.20;96.70
2407;DHT22;37709;53.480;9.688;2022-12-18T12:48:46;1.30;97.80
2407;DHT22;37709;53.480;9.688;2022-12-18T12:51:26;1.20;96.10
2407;DHT22;37709;53.480;9.688;2022-12-18T12:53:57;1.20;96.60
2407;DHT22;37709;53.480;9.688;2022-12-18T12:56:45;1.20;96.20
2407;DHT22;37709;53.480;9.688;2022-12-18T12:59:22;1.20;96.40
2407;DHT22;37709;53.480;9.688;2022-12-18T13:05:14;1.30;96.80
2407;DHT22;37709;53.480;9.688;2022-12-18T13:07:51;1.50;96.00
2407;DHT22;37709;53.480;9.688;2022-12-18T13:10:41;1.50;96.00
2407;DHT22;37709;53.480;9.688;2022-12-18T13:13:11;1.30;96.00
2407;DHT22;37709;53.480;9.688;2022-12-18T13:16:06;1.10;96.20
2407;DHT22;37709;53.480;9.688;2022-12-18T13:18:35;0.80;96.80
2407;DHT22;37709;53.480;9.688;2022-12-18T13:21:30;0.50;97.30
2407;DHT22;37709;53.480;9.688;2022-12-18T13:24:23;0.30;97.70
2407;DHT22;37709;53.480;9.688;2022-12-18T13:26:56;0.20;97.90
2407;DHT22;37709;53.480;9.688;2022-12-18T13:29:43;0.10;98.60
2407;DHT22;37709;53.480;9.688;2022-12-18T13:32:21;0.10;98.20
2407;DHT22;37709;53.480;9.688;2022-12-18T13:37:53;-0.10;98.30
2407;DHT22;37709;53.480;9.688;2022-12-18T13:48:33;-0.60;98.50
2407;DHT22;37709;53.480;9.688;2022-12-18T13:51:17;-0.70;98.70
2407;DHT22;37709;53.480;9.688;2022-12-18T13:53:52;-0.70;98.50
2407;DHT22;37709;53.480;9.688;2022-12-18T13:56:25;-0.70;98.60
2407;DHT22;37709;53.480;9.688;2022-12-18T14:01:54;-0.80;98.50
2407;DHT22;37709;53.480;9.688;2022-12-18T14:04:27;-0.90;98.80
2407;DHT22;37709;53.480;9.688;2022-12-18T14:07:02;-1.00;99.00
2407;DHT22;37709;53.480;9.688;2022-12-18T14:09:41;-1.00;99.00
2407;DHT22;37709;53.480;9.688;2022-12-18T14:12:21;-1.10;99.10
2407;DHT22;37709;53.480;9.688;2022-12-18T14:18:23;-1.20;99.20
2407;DHT22;37709;53.480;9.688;2022-12-18T14:20:53;-1.40;99.40
2407;DHT22;37709;53.480;9.688;2022-12-18T14:23:37;-1.40;99.70
2407;DHT22;37709;53.480;9.688;2022-12-18T14:26:26;-1.40;99.50
2407;DHT22;37709;53.480;9.688;2022-12-18T14:28:57;-1.50;99.50
2407;DHT22;37709;53.480;9.688;2022-12-18T14:31:27;-1.50;99.70
2407;DHT22;37709;53.480;9.688;2022-12-18T14:33:55;-1.50;99.90
2407;DHT22;37709;53.480;9.688;2022-12-18T14:36:28;-1.60;99.90
2407;DHT22;37709;53.480;9.688;2022-12-18T14:38:59;-1.70;99.90
2407;DHT22;37709;53.480;9.688;2022-12-18T14:41:26;-1.70;99.90
2407;DHT22;37709;53.480;9.688;2022-12-18T14:44:05;-1.70;99.90
2407;DHT22;37709;53.480;9.688;2022-12-18T14:46:37;-1.80;99.90
2407;DHT22;37709;53.480;9.688;2022-12-18T14:49:22;-1.90;99.90
2407;DHT22;37709;53.480;9.688;2022-12-18T14:51:58;-2.00;99.90
2407;DHT22;37709;53.480;9.688;2022-12-18T14:54:28;-2.10;99.90
2407;DHT22;37709;53.480;9.688;2022-12-18T14:57:13;-2.20;99.90
2407;DHT22;37709;53.480;9.688;2022-12-18T14:59:44;-2.30;99.90
2407;DHT22;37709;53.480;9.688;2022-12-18T15:02:27;-2.30;99.90
2407;DHT22;37709;53.480;9.688;2022-12-18T15:05:05;-2.40;99.90
2407;DHT22;37709;53.480;9.688;2022-12-18T15:07:49;-2.50;99.90
2407;DHT22;37709;53.480;9.688;2022-12-18T15:10:24;-2.70;99.90
2407;DHT22;37709;53.480;9.688;2022-12-18T15:18:13;-2.80;99.90
2407;DHT22;37709;53.480;9.688;2022-12-18T15:20:48;-2.90;99.90
2407;DHT22;37709;53.480;9.688;2022-12-18T15:23:35;-3.00;99.90
2407;DHT22;37709;53.480;9.688;2022-12-18T15:26:06;-3.00;99.90
2407;DHT22;37709;53.480;9.688;2022-12-18T15:28:38;-3.00;99.90
2407;DHT22;37709;53.480;9.688;2022-12-18T15:31:28;-2.90;99.90
2407;DHT22;37709;53.480;9.688;2022-12-18T15:36:25;-2.80;99.90
2407;DHT22;37709;53.480;9.688;2022-12-18T15:39:03;-2.80;99.90
2407;DHT22;37709;53.480;9.688;2022-12-18T15:41:34;-2.80;99.90
2407;DHT22;37709;53.480;9.688;2022-12-18T15:44:15;-2.80;99.90
2407;DHT22;37709;53.480;9.688;2022-12-18T15:46:44;-2.80;99.90
2407;DHT22;37709;53.480;9.688;2022-12-18T15:49:11;-2.80;99.90
2407;DHT22;37709;53.480;9.688;2022-12-18T15:51:39;-2.80;99.90
2407;DHT22;37709;53.480;9.688;2022-12-18T15:54:12;-2.80;99.90
2407;DHT22;37709;53.480;9.688;2022-12-18T15:56:40;-2.80;99.90
2407;DHT22;37709;53.480;9.688;2022-12-18T15:59:26;-2.80;99.90
2407;DHT22;37709;53.480;9.688;2022-12-18T16:01:53;-2.90;99.90
2407;DHT22;37709;53.480;9.688;2022-12-18T16:04:22;-2.90;99.90
2407;DHT22;37709;53.480;9.688;2022-12-18T16:06:50;-2.90;99.90
2407;DHT22;37709;53.480;9.688;2022-12-18T16:09:39;-2.80;99.90
2407;DHT22;37709;53.480;9.688;2022-12-18T16:12:15;-2.90;99.90
2407;DHT22;37709;53.480;9.688;2022-12-18T16:14:44;-2.90;99.90
2407;DHT22;37709;53.480;9.688;2022-12-18T16:17:12;-2.90;99.90
2407;DHT22;37709;53.480;9.688;2022-12-18T16:19:40;-2.90;99.90
2407;DHT22;37709;53.480;9.688;2022-12-18T16:22:18;-2.90;99.90
2407;DHT22;37709;53.480;9.688;2022-12-18T16:24:47;-2.90;99.90
2407;DHT22;37709;53.480;9.688;2022-12-18T16:27:15;-2.90;99.90
2407;DHT22;37709;53.480;9.688;2022-12-18T16:29:42;-2.90;99.90
2407;DHT22;37709;53.480;9.688;2022-12-18T16:32:15;-2.90;99.90
2407;DHT22;37709;53.480;9.688;2022-12-18T16:34:43;-2.90;99.90
2407;DHT22;37709;53.480;9.688;2022-12-18T16:37:13;-2.90;99.90
2407;DHT22;37709;53.480;9.688;2022-12-18T16:39:41;-2.90;99.90
2407;DHT22;37709;53.480;9.688;2022-12-18T16:42:17;-3.00;99.90
2407;DHT22;37709;53.480;9.688;2022-12-18T16:44:47;-3.00;99.90
2407;DHT22;37709;53.480;9.688;2022-12-18T16:47:15;-3.10;99.90
2407;DHT22;37709;53.480;9.688;2022-12-18T16:49:43;-3.10;99.90
2407;DHT22;37709;53.480;9.688;2022-12-18T16:52:12;-3.00;99.90
2407;DHT22;37709;53.480;9.688;2022-12-18T16:54:40;-3.00;99.90
2407;DHT22;37709;53.480;9.688;2022-12-18T16:57:10;-3.00;99.90
2407;DHT22;37709;53.480;9.688;2022-12-18T16:59:39;-3.00;99.90
2407;DHT22;37709;53.480;9.688;2022-12-18T17:02:12;-3.00;99.90
2407;DHT22;37709;53.480;9.688;2022-12-18T17:04:42;-3.00;99.90
2407;DHT22;37709;53.480;9.688;2022-12-18T17:07:10;-3.00;99.90
2407;DHT22;37709;53.480;9.688;2022-12-18T17:09:38;-3.00;99.90
2407;DHT22;37709;53.480;9.688;2022-12-18T17:12:06;-3.10;99.90
2407;DHT22;37709;53.480;9.688;2022-12-18T17:14:34;-3.00;99.90
2407;DHT22;37709;53.480;9.688;2022-12-18T17:17:01;-3.00;99.90
2407;DHT22;37709;53.480;9.688;2022-12-18T17:19:50;-3.00;99.90
2407;DHT22;37709;53.480;9.688;2022-12-18T17:22:19;-3.00;99.90
2407;DHT22;37709;53.480;9.688;2022-12-18T17:24:46;-2.90;99.90
2407;DHT22;37709;53.480;9.688;2022-12-18T17:27:14;-2.90;99.90
2407;DHT22;37709;53.480;9.688;2022-12-18T17:29:41;-2.90;99.90
2407;DHT22;37709;53.480;9.688;2022-12-18T17:32:15;-3.00;99.90
2407;DHT22;37709;53.480;9.688;2022-12-18T17:34:43;-3.00;99.90
2407;DHT22;37709;53.480;9.688;2022-12-18T17:37:11;-3.00;99.90
2407;DHT22;37709;53.480;9.688;2022-12-18T17:39:38;-2.90;99.90
2407;DHT22;37709;53.480;9.688;2022-12-18T17:42:06;-2.90;99.90
2407;DHT22;37709;53.480;9.688;2022-12-18T17:44:36;-2.90;99.90
2407;DHT22;37709;53.480;9.688;2022-12-18T17:47:03;-2.90;99.90
2407;DHT22;37709;53.480;9.688;2022-12-18T17:49:32;-3.00;99.90
2407;DHT22;37709;53.480;9.688;2022-12-18T17:51:59;-2.90;99.90
2407;DHT22;37709;53.480;9.688;2022-12-18T17:54:27;-2.90;99.90
2407;DHT22;37709;53.480;9.688;2022-12-18T17:56:54;-2.90;99.90
2407;DHT22;37709;53.480;9.688;2022-12-18T17:59:21;-2.90;99.90
2407;DHT22;37709;53.480;9.688;2022-12-18T18:01:48;-2.90;99.90
2407;DHT22;37709;53.480;9.688;2022-12-18T18:04:16;-2.90;99.90
2407;DHT22;37709;53.480;9.688;2022-12-18T18:06:44;-2.90;99.90
2407;DHT22;37709;53.480;9.688;2022-12-18T18:09:12;-2.90;99.90
2407;DHT22;37709;53.480;9.688;2022-12-18T18:11:44;-2.90;99.90
2407;DHT22;37709;53.480;9.688;2022-12-18T18:14:31;-2.90;99.90
2407;DHT22;37709;53.480;9.688;2022-12-18T18:17:01;-2.90;99.90
2407;DHT22;37709;53.480;9.688;2022-12-18T18:19:31;-2.90;99.90
2407;DHT22;37709;53.480;9.688;2022-12-18T18:21:59;-2.90;99.90
2407;DHT22;37709;53.480;9.688;2022-12-18T18:24:28;-3.00;99.90
2407;DHT22;37709;53.480;9.688;2022-12-18T18:26:55;-3.00;99.90
2407;DHT22;37709;53.480;9.688;2022-12-18T18:29:27;-3.00;99.90
2407;DHT22;37709;53.480;9.688;2022-12-18T18:31:56;-3.10;99.90
2407;DHT22;37709;53.480;9.688;2022-12-18T18:34:30;-3.00;99.90
2407;DHT22;37709;53.480;9.688;2022-12-18T18:37:00;-3.10;99.90
2407;DHT22;37709;53.480;9.688;2022-12-18T18:39:28;-3.10;99.90
2407;DHT22;37709;53.480;9.688;2022-12-18T18:41:56;-3.00;99.90
2407;DHT22;37709;53.480;9.688;2022-12-18T18:44:23;-3.00;99.90
2407;DHT22;37709;53.480;9.688;2022-12-18T18:46:54;-3.00;99.90
2407;DHT22;37709;53.480;9.688;2022-12-18T18:49:23;-2.90;99.90
2407;DHT22;37709;53.480;9.688;2022-12-18T18:51:54;-2.90;99.90
2407;DHT22;37709;53.480;9.688;2022-12-18T18:54:21;-2.90;99.90
2407;DHT22;37709;53.480;9.688;2022-12-18T18:56:49;-2.90;99.90
2407;DHT22;37709;53.480;9.688;2022-12-18T18:59:37;-3.00;99.90
2407;DHT22;37709;53.480;9.688;2022-12-18T19:02:04;-3.00;99.90
2407;DHT22;37709;53.480;9.688;2022-12-18T19:04:33;-3.00;99.90
2407;DHT22;37709;53.480;9.688;2022-12-18T19:07:00;-3.00;99.90
2407;DHT22;37709;53.480;9.688;2022-12-18T19:09:28;-3.00;99.90
2407;DHT22;37709;53.480;9.688;2022-12-18T19:11:56;-3.10;99.90
2407;DHT22;37709;53.480;9.688;2022-12-18T19:14:43;-3.10;99.90
2407;DHT22;37709;53.480;9.688;2022-12-18T19:17:10;-3.00;99.90
2407;DHT22;37709;53.480;9.688;2022-12-18T19:19:38;-3.00;99.90
2407;DHT22;37709;53.480;9.688;2022-12-18T19:22:05;-2.90;99.90
2407;DHT22;37709;53.480;9.688;2022-12-18T19:24:33;-2.90;99.90
2407;DHT22;37709;53.480;9.688;2022-12-18T19:27:00;-2.80;99.90
2407;DHT22;37709;53.480;9.688;2022-12-18T19:29:27;-2.80;99.90
2407;DHT22;37709;53.480;9.688;2022-12-18T19:31:55;-2.80;99.90
2407;DHT22;37709;53.480;9.688;2022-12-18T19:34:22;-2.70;99.90
2407;DHT22;37709;53.480;9.688;2022-12-18T19:36:51;-2.80;99.90
2407;DHT22;37709;53.480;9.688;2022-12-18T19:39:26;-2.70;99.90
2407;DHT22;37709;53.480;9.688;2022-12-18T19:41:53;-2.70;99.90
2407;DHT22;37709;53.480;9.688;2022-12-18T19:44:20;-2.60;99.90
2407;DHT22;37709;53.480;9.688;2022-12-18T19:46:50;-2.70;99.90
2407;DHT22;37709;53.480;9.688;2022-12-18T19:49:19;-2.70;99.90
2407;DHT22;37709;53.480;9.688;2022-12-18T19:51:47;-2.60;99.90
2407;DHT22;37709;53.480;9.688;2022-12-18T19:54:16;-2.60;99.90
2407;DHT22;37709;53.480;9.688;2022-12-18T19:56:45;-2.50;99.90
2407;DHT22;37709;53.480;9.688;2022-12-18T19:59:12;-2.40;99.90
2407;DHT22;37709;53.480;9.688;2022-12-18T20:01:40;-2.40;99.90
2407;DHT22;37709;53.480;9.688;2022-12-18T20:04:08;-2.40;99.90
2407;DHT22;37709;53.480;9.688;2022-12-18T20:06:46;-2.30;99.90
2407;DHT22;37709;53.480;9.688;2022-12-18T20:09:14;-2.30;99.90
2407;DHT22;37709;53.480;9.688;2022-12-18T20:11:42;-2.20;99.90
2407;DHT22;37709;53.480;9.688;2022-12-18T20:14:11;-2.30;99.90
2407;DHT22;37709;53.480;9.688;2022-12-18T20:16:39;-2.30;99.90
2407;DHT22;37709;53.480;9.688;2022-12-18T20:19:09;-2.30;99.90
2407;DHT22;37709;53.480;9.688;2022-12-18T20:21:38;-2.30;99.90
2407;DHT22;37709;53.480;9.688;2022-12-18T20:24:06;-2.30;99.90
2407;DHT22;37709;53.480;9.688;2022-12-18T20:26:34;-2.30;99.90
2407;DHT22;37709;53.480;9.688;2022-12-18T20:29:01;-2.30;99.90
2407;DHT22;37709;53.480;9.688;2022-12-18T20:31:29;-2.30;99.90
2407;DHT22;37709;53.480;9.688;2022-12-18T20:33:57;-2.30;99.90
2407;DHT22;37709;53.480;9.688;2022-12-18T20:36:29;-2.20;99.90
2407;DHT22;37709;53.480;9.688;2022-12-18T20:38:59;-2.20;99.90
2407;DHT22;37709;53.480;9.688;2022-12-18T20:41:30;-2.20;99.90
2407;DHT22;37709;53.480;9.688;2022-12-18T20:44:11;-2.10;99.90
2407;DHT22;37709;53.480;9.688;2022-12-18T20:46:54;-2.20;99.90
2407;DHT22;37709;53.480;9.688;2022-12-18T20:49:23;-2.10;99.90
2407;DHT22;37709;53.480;9.688;2022-12-18T20:51:53;-2.10;99.90
2407;DHT22;37709;53.480;9.688;2022-12-18T20:54:21;-2.00;99.90
2407;DHT22;37709;53.480;9.688;2022-12-18T20:56:49;-2.00;99.90
2407;DHT22;37709;53.480;9.688;2022-12-18T20:59:16;-2.00;99.90
2407;DHT22;37709;53.480;9.688;2022-12-18T21:01:44;-2.00;99.90
2407;DHT22;37709;53.480;9.688;2022-12-18T21:04:16;-2.00;99.90
2407;DHT22;37709;53.480;9.688;2022-12-18T21:06:46;-2.00;99.90
2407;DHT22;37709;53.480;9.688;2022-12-18T21:09:21;-2.10;99.90
2407;DHT22;37709;53.480;9.688;2022-12-18T21:11:49;-2.10;99.90
2407;DHT22;37709;53.480;9.688;2022-12-18T21:14:41;-2.00;99.90
2407;DHT22;37709;53.480;9.688;2022-12-18T21:17:09;-2.00;99.90
2407;DHT22;37709;53.480;9.688;2022-12-18T21:19:37;-2.00;99.90
2407;DHT22;37709;53.480;9.688;2022-12-18T21:22:05;-2.10;99.90
2407;DHT22;37709;53.480;9.688;2022-12-18T21:24:32;-2.00;99.90
2407;DHT22;37709;53.480;9.688;2022-12-18T21:26:59;-2.00;99.90
2407;DHT22;37709;53.480;9.688;2022-12-18T21:29:28;-2.10;99.90
2407;DHT22;37709;53.480;9.688;2022-12-18T21:31:56;-2.00;99.90
2407;DHT22;37709;53.480;9.688;2022-12-18T21:34:26;-2.00;99.90
2407;DHT22;37709;53.480;9.688;2022-12-18T21:36:55;-2.00;99.90
2407;DHT22;37709;53.480;9.688;2022-12-18T21:39:24;-2.00;99.90
2407;DHT22;37709;53.480;9.688;2022-12-18T21:41:52;-2.00;99.90
2407;DHT22;37709;53.480;9.688;2022-12-18T21:44:38;-2.00;99.90
2407;DHT22;37709;53.480;9.688;2022-12-18T21:47:09;-2.00;99.90
2407;DHT22;37709;53.480;9.688;2022-12-18T21:49:52;-2.00;99.90
2407;DHT22;37709;53.480;9.688;2022-12-18T21:52:20;-2.00;99.90
2407;DHT22;37709;53.480;9.688;2022-12-18T21:55:00;-2.10;99.90
2407;DHT22;37709;53.480;9.688;2022-12-18T21:57:37;-2.10;99.90
2407;DHT22;37709;53.480;9.688;2022-12-18T22:00:08;-2.00;99.90
2407;DHT22;37709;53.480;9.688;2022-12-18T22:02:39;-2.00;99.90
2407;DHT22;37709;53.480;9.688;2022-12-18T22:05:07;-2.00;99.90
2407;DHT22;37709;53.480;9.688;2022-12-18T22:07:34;-2.00;99.90
2407;DHT22;37709;53.480;9.688;2022-12-18T22:10:02;-2.00;99.90
2407;DHT22;37709;53.480;9.688;2022-12-18T22:12:29;-1.90;99.90
2407;DHT22;37709;53.480;9.688;2022-12-18T22:15:11;-2.00;99.90
2407;DHT22;37709;53.480;9.688;2022-12-18T22:17:46;-2.00;99.90
2407;DHT22;37709;53.480;9.688;2022-12-18T22:20:13;-1.90;99.90
2407;DHT22;37709;53.480;9.688;2022-12-18T22:22:42;-1.90;99.90
2407;DHT22;37709;53.480;9.688;2022-12-18T22:25:09;-1.90;99.90
2407;DHT22;37709;53.480;9.688;2022-12-18T22:27:37;-1.90;99.90
2407;DHT22;37709;53.480;9.688;2022-12-18T22:30:05;-1.90;99.90
2407;DHT22;37709;53.480;9.688;2022-12-18T22:32:34;-1.80;99.90
2407;DHT22;37709;53.480;9.688;2022-12-18T22:35:04;-1.80;99.90
2407;DHT22;37709;53.480;9.688;2022-12-18T22:37:38;-1.80;99.90
2407;DHT22;37709;53.480;9.688;2022-12-18T22:40:19;-1.70;99.90
2407;DHT22;37709;53.480;9.688;2022-12-18T22:42:52;-1.70;99.90
2407;DHT22;37709;53.480;9.688;2022-12-18T22:45:26;-1.70;99.90
2407;DHT22;37709;53.480;9.688;2022-12-18T22:47:54;-1.70;99.90
2407;DHT22;37709;53.480;9.688;2022-12-18T22:50:21;-1.70;99.90
2407;DHT22;37709;53.480;9.688;2022-12-18T22:52:49;-1.70;99.90
2407;DHT22;37709;53.480;9.688;2022-12-18T22:55:16;-1.70;99.90
2407;DHT22;37709;53.480;9.688;2022-12-18T22:57:43;-1.70;99.90
2407;DHT22;37709;53.480;9.688;2022-12-18T23:00:16;-1.60;99.90
2407;DHT22;37709;53.480;9.688;2022-12-18T23:02:51;-1.60;99.90
2407;DHT22;37709;53.480;9.688;2022-12-18T23:05:28;-1.60;99.90
2407;DHT22;37709;53.480;9.688;2022-12-18T23:07:56;-1.60;99.90
2407;DHT22;37709;53.480;9.688;2022-12-18T23:10:24;-1.60;99.90
2407;DHT22;37709;53.480;9.688;2022-12-18T23:12:51;-1.60;99.90
2407;DHT22;37709;53.480;9.688;2022-12-18T23:15:19;-1.60;99.90
2407;DHT22;37709;53.480;9.688;2022-12-18T23:17:56;-1.60;99.90
2407;DHT22;37709;53.480;9.688;2022-12-18T23:20:25;-1.60;99.90
2407;DHT22;37709;53.480;9.688;2022-12-18T23:22:53;-1.60;99.90
2407;DHT22;37709;53.480;9.688;2022-12-18T23:25:20;-1.60;99.90
2407;DHT22;37709;53.480;9.688;2022-12-18T23:27:48;-1.60;99.90
2407;DHT22;37709;53.480;9.688;2022-12-18T23:30:15;-1.60;99.90
2407;DHT22;37709;53.480;9.688;2022-12-18T23:32:42;-1.60;99.90
2407;DHT22;37709;53.480;9.688;2022-12-18T23:35:09;-1.60;99.90
2407;DHT22;37709;53.480;9.688;2022-12-18T23:37:42;-1.60;99.90
2407;DHT22;37709;53.480;9.688;2022-12-18T23:40:26;-1.70;99.90
2407;DHT22;37709;53.480;9.688;2022-12-18T23:42:53;-1.60;99.90
2407;DHT22;37709;53.480;9.688;2022-12-18T23:45:20;-1.60;99.90
2407;DHT22;37709;53.480;9.688;2022-12-18T23:47:48;-1.70;99.90
2407;DHT22;37709;53.480;9.688;2022-12-18T23:50:17;-1.60;99.90
2407;DHT22;37709;53.480;9.688;2022-12-18T23:52:49;-1.60;99.90
2407;DHT22;37709;53.480;9.688;2022-12-18T23:55:16;-1.50;99.90
2407;DHT22;37709;53.480;9.688;2022-12-18T23:57:43;-1.50;99.90
